createdAt,value
2024-05-09T00:00:50.007Z,64.40
2024-05-09T00:05:43.196Z,64.37
2024-05-09T00:10:37.962Z,64.39
2024-05-09T00:15:31.633Z,64.14
2024-05-09T00:20:28.605Z,64.28
2024-05-09T00:25:28.196Z,63.99
2024-05-09T00:30:27.983Z,64.01
2024-05-09T00:35:25.290Z,64.04
2024-05-09T00:40:26.521Z,64.08
2024-05-09T00:45:22.969Z,64.15
2024-05-09T00:50:19.450Z,64.19
2024-05-09T00:55:16.526Z,64.20
2024-05-09T01:00:18.439Z,64.22
2024-05-09T01:05:18.647Z,64.28
2024-05-09T01:10:17.025Z,64.45
2024-05-09T01:15:12.920Z,64.68
2024-05-09T01:20:06.395Z,64.52
2024-05-09T01:25:02.314Z,64.56
2024-05-09T01:29:54.357Z,64.62
2024-05-09T01:34:46.239Z,64.52
2024-05-09T01:39:38.238Z,64.70
2024-05-09T01:44:30.139Z,64.68
2024-05-09T01:49:22.423Z,64.71
2024-05-09T01:54:14.361Z,64.65
2024-05-09T01:59:07.613Z,64.52
2024-05-09T02:03:59.686Z,64.49
2024-05-09T02:08:51.710Z,64.57
2024-05-09T02:13:43.846Z,64.73
2024-05-09T02:18:36.165Z,64.65
2024-05-09T02:23:28.194Z,64.62
2024-05-09T02:28:21.153Z,64.73
2024-05-09T02:33:14.422Z,64.65
2024-05-09T02:38:06.872Z,64.76
2024-05-09T02:42:58.720Z,64.59
2024-05-09T02:47:50.808Z,64.75
2024-05-09T02:52:42.768Z,64.71
2024-05-09T02:57:34.609Z,64.86
2024-05-09T03:02:27.213Z,64.77
2024-05-09T03:07:20.262Z,64.59
2024-05-09T03:12:12.394Z,64.60
2024-05-09T03:17:04.509Z,64.74
2024-05-09T03:21:56.452Z,64.65
2024-05-09T03:26:48.538Z,64.68
2024-05-09T03:31:40.438Z,64.62
2024-05-09T03:36:32.247Z,64.62
2024-05-09T03:41:24.165Z,64.90
2024-05-09T03:46:16.026Z,65.01
2024-05-09T03:51:08.679Z,64.73
2024-05-09T03:56:00.981Z,64.64
2024-05-09T04:00:52.934Z,64.53
2024-05-09T04:05:45.021Z,64.65
2024-05-09T04:10:37.968Z,64.67
2024-05-09T04:15:29.851Z,64.65
2024-05-09T04:20:32.838Z,64.64
2024-05-09T04:25:31.962Z,64.81
2024-05-09T04:30:34.296Z,64.63
2024-05-09T04:35:30.596Z,64.51
2024-05-09T04:40:30.771Z,64.71
2024-05-09T04:45:25.540Z,64.59
2024-05-09T04:50:25.348Z,64.57
2024-05-09T04:55:25.588Z,64.43
2024-05-09T05:00:25.740Z,64.48
2024-05-09T05:05:24.052Z,64.20
2024-05-09T05:10:21.588Z,64.29
2024-05-09T05:15:20.894Z,64.14
2024-05-09T05:20:15.345Z,64.15
2024-05-09T05:25:12.806Z,63.78
2024-05-09T05:30:07.501Z,64.00
2024-05-09T05:35:01.383Z,64.07
2024-05-09T05:39:53.262Z,64.07
2024-05-09T05:44:46.747Z,64.14
2024-05-09T05:49:38.853Z,64.28
2024-05-09T05:54:30.698Z,64.09
2024-05-09T05:59:24.183Z,64.25
2024-05-09T06:04:17.595Z,63.95
2024-05-09T06:09:09.510Z,62.85
2024-05-09T06:14:01.773Z,62.66
2024-05-09T06:18:53.935Z,62.53
2024-05-09T06:23:49.515Z,62.30
2024-05-09T06:28:41.408Z,61.80
2024-05-09T06:33:33.732Z,61.93
2024-05-09T06:38:26.736Z,61.75
2024-05-09T06:43:19.777Z,61.61
2024-05-09T06:48:12.269Z,62.04
2024-05-09T06:53:04.462Z,62.28
2024-05-09T06:57:56.779Z,62.53
2024-05-09T07:02:48.689Z,62.69
2024-05-09T07:07:40.590Z,62.65
2024-05-09T07:12:32.543Z,62.75
2024-05-09T07:17:24.847Z,62.91
2024-05-09T07:22:16.809Z,63.20
2024-05-09T07:27:08.571Z,63.19
2024-05-09T07:32:00.495Z,63.49
2024-05-09T07:36:52.603Z,63.11
2024-05-09T07:41:44.450Z,63.38
2024-05-09T07:53:08.651Z,63.56
2024-05-09T07:56:43.330Z,63.66
2024-05-09T08:01:35.373Z,63.46
2024-05-09T08:06:27.411Z,63.61
2024-05-09T08:11:22.138Z,63.61
2024-05-09T08:16:14.657Z,63.62
2024-05-09T08:21:06.680Z,63.66
2024-05-09T08:25:58.494Z,63.60
2024-05-09T08:30:50.649Z,63.60
2024-05-09T08:35:42.707Z,63.70
2024-05-09T08:40:37.321Z,63.89
2024-05-09T08:45:32.991Z,63.59
2024-05-09T08:50:32.305Z,63.82
2024-05-09T08:55:30.288Z,63.91
2024-05-09T09:00:33.381Z,63.94
2024-05-09T09:05:31.429Z,63.84
2024-05-09T09:10:29.955Z,63.85
2024-05-09T09:15:27.348Z,63.84
2024-05-09T09:20:26.334Z,63.88
2024-05-09T09:25:25.385Z,63.85
2024-05-09T09:30:30.879Z,63.89
2024-05-09T09:35:28.999Z,63.87
2024-05-09T09:40:31.401Z,63.72
2024-05-09T09:45:26.289Z,63.75
2024-05-09T09:50:24.101Z,63.76
2024-05-09T09:55:25.007Z,63.72
2024-05-09T10:00:24.136Z,63.80
2024-05-09T10:05:19.954Z,63.41
2024-05-09T10:10:16.230Z,63.37
2024-05-09T10:15:09.542Z,63.29
2024-05-09T10:20:14.866Z,63.26
2024-05-09T10:25:13.913Z,63.13
2024-05-09T10:30:11.467Z,63.07
2024-05-09T10:35:07.804Z,63.02
2024-05-09T10:40:01.190Z,63.16
2024-05-09T10:44:53.526Z,63.35
2024-05-09T10:49:45.641Z,63.28
2024-05-09T10:54:38.763Z,63.31
2024-05-09T10:59:34.652Z,63.28
2024-05-09T11:04:28.007Z,63.55
2024-05-09T11:09:20.187Z,63.39
2024-05-09T11:14:14.009Z,63.62
2024-05-09T11:19:13.195Z,63.52
2024-05-09T11:24:08.688Z,63.51
2024-05-09T11:29:02.963Z,63.22
2024-05-09T11:33:55.031Z,63.47
2024-05-09T11:38:47.268Z,63.36
2024-05-09T11:43:39.119Z,63.31
2024-05-09T11:48:31.390Z,63.69
2024-05-09T11:53:23.621Z,63.49
2024-05-09T11:58:17.889Z,63.50
2024-05-09T12:03:10.555Z,63.25
2024-05-09T12:08:02.747Z,63.31
2024-05-09T12:12:54.714Z,63.22
2024-05-09T12:17:49.580Z,63.26
2024-05-09T12:22:42.523Z,63.33
2024-05-09T12:27:36.455Z,63.25
2024-05-09T12:32:28.528Z,63.29
2024-05-09T12:37:20.525Z,63.33
2024-05-09T12:42:19.257Z,63.36
2024-05-09T12:47:17.780Z,63.39
2024-05-09T12:52:09.895Z,63.44
2024-05-09T12:57:02.002Z,63.38
2024-05-09T13:01:54.416Z,63.35
2024-05-09T13:06:47.284Z,63.49
2024-05-09T13:11:39.605Z,63.53
2024-05-09T13:16:31.580Z,63.02
2024-05-09T13:21:23.413Z,62.93
2024-05-09T13:26:15.250Z,63.32
2024-05-09T13:31:07.132Z,63.27
2024-05-09T13:35:59.593Z,63.00
2024-05-09T13:40:51.702Z,63.03
2024-05-09T13:45:43.894Z,62.70
2024-05-09T13:50:36.979Z,62.32
2024-05-09T13:55:29.094Z,61.75
2024-05-09T14:05:16.511Z,60.00
2024-05-09T14:10:19.446Z,60.34
2024-05-09T14:15:15.353Z,60.25
2024-05-09T14:20:11.612Z,60.39
2024-05-09T14:25:03.963Z,60.23
2024-05-09T14:29:55.889Z,61.29
2024-05-09T14:34:48.047Z,61.06
2024-05-09T14:39:40.167Z,61.09
2024-05-09T14:44:32.075Z,60.79
2024-05-09T14:49:23.934Z,60.72
2024-05-09T14:54:16.293Z,60.68
2024-05-09T14:59:09.178Z,60.75
2024-05-09T15:04:01.255Z,61.02
2024-05-09T15:08:56.644Z,61.80
2024-05-09T15:13:48.726Z,61.72
2024-05-09T15:18:43.612Z,61.25
2024-05-09T15:23:36.085Z,61.31
2024-05-09T15:28:28.073Z,61.30
2024-05-09T15:33:19.997Z,61.16
2024-05-09T15:38:14.201Z,61.38
2024-05-09T15:43:06.995Z,62.02
2024-05-09T15:47:59.724Z,61.95
2024-05-09T15:52:51.759Z,61.60
2024-05-09T15:57:46.105Z,61.75
2024-05-09T16:02:38.118Z,61.76
2024-05-09T16:07:30.162Z,61.69
2024-05-09T16:12:21.996Z,61.88
2024-05-09T16:17:14.313Z,61.87
2024-05-09T16:22:06.194Z,61.95
2024-05-09T16:26:58.249Z,62.14
2024-05-09T16:31:50.199Z,62.05
2024-05-09T16:36:43.924Z,62.07
2024-05-09T16:41:36.302Z,61.88
2024-05-09T16:46:28.409Z,61.80
2024-05-09T16:51:20.268Z,61.61
2024-05-09T16:56:13.054Z,61.31
2024-05-09T17:01:05.265Z,61.87
2024-05-09T17:05:57.658Z,61.82
2024-05-09T17:10:50.077Z,61.62
2024-05-09T17:15:42.347Z,61.20
2024-05-09T17:20:36.694Z,61.32
2024-05-09T17:25:29.539Z,61.61
2024-05-09T17:30:29.029Z,61.34
2024-05-09T17:35:26.782Z,61.22
2024-05-09T17:40:27.400Z,61.40
2024-05-09T17:45:24.562Z,61.38
2024-05-09T17:50:23.867Z,61.20
2024-05-09T17:55:19.805Z,61.25
2024-05-09T18:00:14.947Z,61.75
2024-05-09T18:05:10.695Z,60.59
2024-05-09T18:10:03.227Z,60.80
2024-05-09T18:14:55.775Z,61.24
2024-05-09T18:19:47.854Z,60.52
2024-05-09T18:24:39.837Z,59.54
2024-05-09T18:29:31.841Z,59.28
2024-05-09T18:34:23.800Z,59.09
2024-05-09T18:39:16.937Z,59.09
2024-05-09T18:44:09.255Z,59.63
2024-05-09T18:49:01.409Z,59.60
2024-05-09T18:53:55.248Z,60.06
2024-05-09T18:58:47.424Z,60.23
2024-05-09T19:03:39.544Z,60.24
2024-05-09T19:08:31.569Z,60.70
2024-05-09T19:13:25.313Z,60.63
2024-05-09T19:18:17.722Z,60.46
2024-05-09T19:23:11.633Z,60.65
2024-05-09T19:28:05.469Z,60.72
2024-05-09T19:32:58.245Z,61.05
2024-05-09T19:37:51.584Z,61.36
2024-05-09T19:42:43.450Z,61.98
2024-05-09T19:47:35.559Z,62.41
2024-05-09T19:52:27.534Z,61.86
2024-05-09T19:57:19.546Z,62.44
2024-05-09T20:02:11.731Z,63.30
2024-05-09T20:07:04.052Z,63.68
2024-05-09T20:11:55.863Z,64.06
2024-05-09T20:16:47.936Z,64.08
2024-05-09T20:21:43.279Z,64.22
2024-05-09T20:26:35.268Z,64.43
2024-05-09T20:31:27.137Z,64.27
2024-05-09T20:36:18.915Z,64.68
2024-05-09T20:41:10.819Z,64.43
2024-05-09T20:46:03.440Z,65.29
2024-05-09T20:50:55.296Z,64.94
2024-05-09T20:55:47.295Z,65.05
2024-05-09T21:00:42.822Z,65.18
2024-05-09T21:05:37.221Z,65.39
2024-05-09T21:10:32.903Z,65.65
2024-05-09T21:15:25.840Z,65.41
2024-05-09T21:20:23.620Z,65.82
2024-05-09T21:25:20.391Z,65.91
2024-05-09T21:30:18.759Z,66.22
2024-05-09T21:35:19.678Z,65.29
2024-05-09T21:40:16.951Z,64.23
2024-05-09T21:45:15.940Z,63.32
2024-05-09T21:50:08.132Z,62.98
2024-05-09T21:55:00.233Z,62.42
2024-05-09T21:59:52.183Z,61.99
2024-05-09T22:04:44.199Z,61.84
2024-05-09T22:09:36.191Z,61.45
2024-05-09T22:14:28.230Z,61.48
2024-05-09T22:19:20.102Z,62.06
2024-05-09T22:24:12.091Z,62.65
2024-05-09T22:29:05.723Z,63.30
2024-05-09T22:33:57.770Z,63.87
2024-05-09T22:38:49.761Z,64.06
2024-05-09T22:43:41.738Z,64.33
2024-05-09T22:48:33.717Z,64.70
2024-05-09T22:53:26.033Z,64.73
2024-05-09T22:58:18.223Z,65.03
2024-05-09T23:03:10.273Z,65.12
2024-05-09T23:08:02.783Z,64.94
2024-05-09T23:12:55.235Z,65.46
2024-05-09T23:17:47.278Z,65.71
2024-05-09T23:22:39.226Z,65.92
2024-05-09T23:27:31.042Z,65.89
2024-05-09T23:32:23.306Z,66.15
2024-05-09T23:37:15.177Z,66.20
2024-05-09T23:42:07.476Z,66.01
2024-05-09T23:46:59.477Z,66.21
2024-05-09T23:51:51.285Z,66.20
2024-05-09T23:56:43.072Z,66.28
